createdAt,value
2019-02-16T00:01:22.848Z,6.60
2019-02-16T00:03:49.819Z,6.37
2019-02-16T00:06:16.699Z,4.67
2019-02-16T00:08:43.595Z,3.80
2019-02-16T00:11:10.566Z,3.45
2019-02-16T00:13:37.484Z,3.65
2019-02-16T00:16:04.397Z,4.20
2019-02-16T00:18:31.407Z,4.75
2019-02-16T00:21:03.984Z,5.08
2019-02-16T00:23:29.636Z,5.28
2019-02-16T00:25:56.421Z,5.38
2019-02-16T00:28:23.393Z,5.47
2019-02-16T00:30:50.287Z,5.53
2019-02-16T00:33:18.268Z,5.51
2019-02-16T00:35:45.138Z,5.49
2019-02-16T00:38:12.135Z,5.55
2019-02-16T00:40:39.083Z,5.49
2019-02-16T00:43:05.944Z,5.51
2019-02-16T00:45:32.844Z,5.49
2019-02-16T00:47:59.702Z,5.43
2019-02-16T00:50:26.588Z,5.33
2019-02-16T00:52:53.624Z,5.23
2019-02-16T00:55:20.483Z,5.04
2019-02-16T00:57:47.473Z,5.04
2019-02-16T01:00:14.367Z,4.98
2019-02-16T01:02:41.227Z,5.03
2019-02-16T01:05:08.184Z,5.04
2019-02-16T01:07:35.154Z,4.99
2019-02-16T01:10:01.889Z,5.13
2019-02-16T01:12:28.854Z,5.23
2019-02-16T01:14:55.817Z,5.19
2019-02-16T01:17:22.704Z,5.14
2019-02-16T01:19:49.678Z,5.03
2019-02-16T01:22:16.461Z,4.83
2019-02-16T01:24:43.309Z,4.57
2019-02-16T01:27:10.279Z,4.27
2019-02-16T01:29:37.225Z,4.26
2019-02-16T01:32:04.065Z,4.26
2019-02-16T01:34:31.020Z,4.13
2019-02-16T01:36:57.792Z,4.08
2019-02-16T01:39:24.778Z,4.09
2019-02-16T01:41:51.621Z,4.08
2019-02-16T01:44:18.381Z,4.02
2019-02-16T01:46:45.253Z,3.92
2019-02-16T01:49:12.222Z,3.94
2019-02-16T01:51:38.995Z,4.01
2019-02-16T01:54:05.871Z,4.09
2019-02-16T01:56:32.839Z,3.99
2019-02-16T01:58:59.758Z,3.98
2019-02-16T02:01:26.653Z,3.91
2019-02-16T02:03:53.499Z,3.84
2019-02-16T02:06:20.370Z,3.84
2019-02-16T02:08:47.337Z,3.70
2019-02-16T02:11:16.123Z,3.68
2019-02-16T02:13:42.998Z,3.62
2019-02-16T02:16:09.775Z,3.53
2019-02-16T02:18:36.644Z,3.44
2019-02-16T02:21:03.526Z,3.21
2019-02-16T02:23:30.346Z,3.04
2019-02-16T02:25:57.302Z,2.99
2019-02-16T02:28:24.172Z,2.86
2019-02-16T02:30:51.021Z,2.75
2019-02-16T02:33:17.841Z,2.58
2019-02-16T02:35:44.756Z,2.55
2019-02-16T02:38:11.707Z,2.65
2019-02-16T02:40:38.677Z,2.68
2019-02-16T02:43:05.569Z,2.73
2019-02-16T02:45:32.534Z,2.56
2019-02-16T02:47:59.410Z,2.63
2019-02-16T02:50:26.385Z,2.67
2019-02-16T02:52:53.244Z,2.72
2019-02-16T02:55:21.300Z,2.62
2019-02-16T02:57:48.181Z,2.75
2019-02-16T03:00:15.133Z,2.69
2019-02-16T03:02:42.175Z,2.69
2019-02-16T03:05:09.330Z,2.59
2019-02-16T03:07:36.219Z,2.50
2019-02-16T03:10:03.560Z,2.44
2019-02-16T03:12:30.631Z,2.43
2019-02-16T03:14:57.591Z,2.41
2019-02-16T03:17:24.438Z,2.47
2019-02-16T03:19:51.436Z,2.46
2019-02-16T03:22:18.191Z,2.51
2019-02-16T03:24:45.162Z,2.38
2019-02-16T03:28:18.110Z,2.11
2019-02-16T03:31:13.627Z,2.07
2019-02-16T03:33:51.443Z,2.08
2019-02-16T03:36:54.163Z,2.07
2019-02-16T03:39:31.734Z,2.02
2019-02-16T03:41:58.466Z,1.92
2019-02-16T03:44:25.222Z,1.91
2019-02-16T03:46:52.385Z,1.89
2019-02-16T03:49:19.123Z,1.86
2019-02-16T03:51:45.967Z,1.86
2019-02-16T03:54:12.758Z,1.77
2019-02-16T03:56:39.603Z,1.75
2019-02-16T03:59:06.483Z,1.59
2019-02-16T04:01:33.387Z,1.62
2019-02-16T04:04:00.251Z,1.64
2019-02-16T04:06:27.227Z,1.59
2019-02-16T04:08:54.217Z,1.64
2019-02-16T04:11:20.958Z,1.56
2019-02-16T04:13:47.711Z,1.66
2019-02-16T04:16:14.673Z,1.67
2019-02-16T04:18:41.399Z,1.71
2019-02-16T04:21:08.140Z,1.59
2019-02-16T04:23:35.039Z,1.58
2019-02-16T04:26:06.403Z,1.61
2019-02-16T04:28:33.152Z,1.60
2019-02-16T04:31:00.065Z,1.58
2019-02-16T04:33:26.794Z,1.53
2019-02-16T04:35:53.533Z,1.52
2019-02-16T04:38:25.228Z,1.18
2019-02-16T04:40:52.167Z,1.43
2019-02-16T04:43:19.438Z,1.61
2019-02-16T04:45:47.551Z,1.44
2019-02-16T04:48:14.399Z,1.16
2019-02-16T04:50:41.162Z,1.03
2019-02-16T04:53:07.929Z,0.94
2019-02-16T04:55:34.775Z,0.85
2019-02-16T04:58:01.529Z,0.86
2019-02-16T05:00:28.522Z,0.92
2019-02-16T05:02:55.366Z,0.96
2019-02-16T05:05:22.112Z,0.93
2019-02-16T05:07:49.180Z,0.91
2019-02-16T05:10:16.140Z,0.86
2019-02-16T05:12:42.998Z,0.70
2019-02-16T05:15:09.756Z,0.81
2019-02-16T05:17:36.661Z,1.02
2019-02-16T05:20:03.673Z,1.22
2019-02-16T05:22:31.539Z,1.15
2019-02-16T05:24:58.297Z,1.04
2019-02-16T05:27:25.168Z,1.25
2019-02-16T05:29:52.183Z,1.32
2019-02-16T05:32:18.973Z,1.36
2019-02-16T05:34:45.687Z,1.27
2019-02-16T05:37:12.446Z,1.08
2019-02-16T05:39:39.186Z,0.95
2019-02-16T05:42:06.305Z,0.83
2019-02-16T05:44:33.285Z,0.74
2019-02-16T05:47:00.283Z,0.72
2019-02-16T05:49:27.048Z,0.77
2019-02-16T05:51:54.031Z,0.75
2019-02-16T05:54:20.767Z,0.74
2019-02-16T05:56:47.522Z,0.86
2019-02-16T05:59:14.407Z,0.88
2019-02-16T06:01:41.145Z,0.73
2019-02-16T06:04:07.994Z,0.61
2019-02-16T06:06:34.756Z,0.44
2019-02-16T06:09:01.595Z,0.52
2019-02-16T06:11:33.507Z,0.56
2019-02-16T06:14:00.404Z,0.61
2019-02-16T06:16:27.369Z,0.89
2019-02-16T06:18:54.263Z,0.87
2019-02-16T06:21:21.077Z,0.84
2019-02-16T06:23:48.116Z,1.00
2019-02-16T06:26:15.076Z,0.90
2019-02-16T06:28:41.863Z,0.68
2019-02-16T06:31:08.614Z,0.67
2019-02-16T06:33:35.455Z,0.73
2019-02-16T06:36:07.437Z,0.75
2019-02-16T06:38:34.373Z,0.72
2019-02-16T06:41:01.181Z,0.80
2019-02-16T06:43:28.082Z,0.62
2019-02-16T06:45:54.894Z,0.28
2019-02-16T06:48:21.817Z,0.51
2019-02-16T06:50:48.622Z,0.73
2019-02-16T06:53:15.364Z,0.81
2019-02-16T06:55:55.467Z,1.16
2019-02-16T06:58:22.470Z,1.19
2019-02-16T07:00:49.209Z,1.24
2019-02-16T07:03:16.130Z,1.39
2019-02-16T07:05:42.881Z,1.42
2019-02-16T07:08:09.737Z,1.31
2019-02-16T07:10:36.961Z,1.47
2019-02-16T07:13:03.935Z,1.70
2019-02-16T07:15:30.798Z,1.57
2019-02-16T07:18:20.209Z,1.25
2019-02-16T07:20:47.100Z,1.45
2019-02-16T07:23:22.243Z,1.44
2019-02-16T07:25:42.826Z,1.20
2019-02-16T07:28:13.597Z,1.42
2019-02-16T07:30:40.455Z,1.78
2019-02-16T07:33:07.536Z,2.21
2019-02-16T07:35:34.501Z,2.68
2019-02-16T07:38:01.373Z,3.30
2019-02-16T07:40:28.404Z,3.85
2019-02-16T07:42:56.935Z,4.42
2019-02-16T07:46:03.191Z,4.23
2019-02-16T07:48:44.977Z,4.57
2019-02-16T07:51:17.731Z,4.36
2019-02-16T07:54:02.939Z,5.06
2019-02-16T07:56:37.647Z,5.88
2019-02-16T07:59:25.154Z,6.52
2019-02-16T08:02:16.250Z,7.02
2019-02-16T08:04:59.487Z,7.46
2019-02-16T08:07:50.361Z,8.14
2019-02-16T08:10:39.472Z,8.77
2019-02-16T08:13:20.694Z,9.16
2019-02-16T08:15:53.102Z,9.52
2019-02-16T08:18:38.085Z,9.90
2019-02-16T08:21:17.770Z,10.30
2019-02-16T08:24:10.390Z,10.77
2019-02-16T08:27:08.786Z,11.07
2019-02-16T08:30:15.994Z,10.75
2019-02-16T08:33:00.929Z,10.75
2019-02-16T08:35:38.934Z,11.03
2019-02-16T08:38:11.949Z,11.13
2019-02-16T08:40:57.018Z,11.45
2019-02-16T08:43:35.133Z,11.78
2019-02-16T08:46:19.365Z,12.14
2019-02-16T08:49:05.784Z,12.47
2019-02-16T08:51:51.029Z,12.56
2019-02-16T08:54:35.900Z,12.09
2019-02-16T08:57:12.453Z,12.37
2019-02-16T08:59:57.783Z,12.62
2019-02-16T09:02:50.422Z,11.85
2019-02-16T09:05:39.537Z,12.22
2019-02-16T09:08:20.557Z,12.55
2019-02-16T09:10:56.543Z,11.43
2019-02-16T09:13:55.187Z,11.43
2019-02-16T09:16:40.487Z,11.70
2019-02-16T09:19:15.953Z,12.55
2019-02-16T09:22:14.670Z,13.46
2019-02-16T09:24:47.630Z,14.32
2019-02-16T09:27:34.023Z,15.37
2019-02-16T09:30:19.150Z,15.87
2019-02-16T09:33:06.656Z,15.88
2019-02-16T09:35:52.242Z,16.02
2019-02-16T09:38:56.784Z,17.11
2019-02-16T09:41:45.395Z,18.00
2019-02-16T09:44:27.357Z,18.64
2019-02-16T09:47:19.562Z,19.29
2019-02-16T09:50:08.920Z,19.74
2019-02-16T09:52:54.301Z,20.62
2019-02-16T09:55:29.418Z,20.72
2019-02-16T09:58:26.422Z,20.29
2019-02-16T10:01:15.723Z,20.20
2019-02-16T10:03:49.687Z,20.70
2019-02-16T10:06:39.988Z,20.71
2019-02-16T10:09:25.957Z,16.91
2019-02-16T10:12:30.689Z,14.86
2019-02-16T10:15:22.988Z,17.51
2019-02-16T10:18:12.279Z,18.64
2019-02-16T10:20:53.889Z,17.84
2019-02-16T10:23:43.774Z,18.72
2019-02-16T10:26:39.335Z,20.03
2019-02-16T10:29:28.732Z,19.36
2019-02-16T10:32:10.678Z,19.57
2019-02-16T10:34:52.084Z,18.21
2019-02-16T10:37:37.602Z,15.87
2019-02-16T10:40:29.744Z,19.36
2019-02-16T10:43:11.538Z,21.69
2019-02-16T10:45:48.148Z,21.34
2019-02-16T10:48:23.330Z,20.22
2019-02-16T10:50:56.283Z,19.88
2019-02-16T10:53:45.459Z,22.10
2019-02-16T10:56:40.263Z,23.34
2019-02-16T10:59:35.893Z,20.87
2019-02-16T11:02:31.608Z,21.78
2019-02-16T11:05:21.242Z,20.76
2019-02-16T11:07:54.502Z,23.15
2019-02-16T11:10:26.742Z,23.32
2019-02-16T11:13:09.399Z,24.33
2019-02-16T11:15:52.702Z,24.70
2019-02-16T11:18:48.114Z,25.59
2019-02-16T11:21:28.584Z,27.17
2019-02-16T11:24:15.267Z,28.60
2019-02-16T11:27:00.872Z,26.43
2019-02-16T11:29:43.921Z,24.05
2019-02-16T11:32:24.208Z,26.12
2019-02-16T11:35:04.180Z,27.79
2019-02-16T11:37:49.330Z,28.70
2019-02-16T11:40:32.101Z,30.28
2019-02-16T11:43:14.212Z,30.50
2019-02-16T11:45:54.427Z,29.68
2019-02-16T11:48:43.890Z,30.58
2019-02-16T11:51:20.063Z,29.80
2019-02-16T11:54:06.543Z,31.00
2019-02-16T11:56:45.636Z,30.14
2019-02-16T11:59:22.431Z,30.34
2019-02-16T12:02:11.831Z,29.98
2019-02-16T12:04:49.508Z,29.67
2019-02-16T12:07:34.112Z,30.61
2019-02-16T12:10:18.034Z,31.61
2019-02-16T12:13:10.688Z,31.82
2019-02-16T12:15:57.076Z,31.11
2019-02-16T12:18:34.620Z,29.39
2019-02-16T12:21:13.161Z,27.73
2019-02-16T12:23:50.746Z,24.06
2019-02-16T12:26:35.705Z,23.32
2019-02-16T12:29:13.083Z,24.12
2019-02-16T12:32:11.846Z,26.76
2019-02-16T12:35:09.584Z,27.81
2019-02-16T12:38:01.954Z,28.87
2019-02-16T12:40:34.993Z,29.59
2019-02-16T12:43:20.189Z,32.21
2019-02-16T12:46:09.320Z,33.88
2019-02-16T12:48:54.454Z,33.20
2019-02-16T12:51:33.690Z,33.81
2019-02-16T12:54:32.257Z,33.52
2019-02-16T12:57:04.336Z,33.30
2019-02-16T13:00:01.331Z,32.08
2019-02-16T13:02:38.560Z,29.48
2019-02-16T13:05:43.395Z,31.78
2019-02-16T13:08:26.465Z,32.08
2019-02-16T13:11:15.375Z,31.47
2019-02-16T13:13:50.972Z,29.18
2019-02-16T13:16:28.436Z,30.40
2019-02-16T13:19:19.125Z,29.25
2019-02-16T13:22:08.665Z,31.43
2019-02-16T13:24:58.078Z,32.94
2019-02-16T13:27:42.947Z,28.72
2019-02-16T13:30:16.889Z,30.16
2019-02-16T13:32:55.282Z,27.09
2019-02-16T13:35:27.364Z,28.73
2019-02-16T13:38:12.647Z,31.53
2019-02-16T13:40:51.589Z,29.61
2019-02-16T13:43:40.717Z,29.90
2019-02-16T13:46:30.610Z,27.01
2019-02-16T13:49:13.231Z,24.45
2019-02-16T13:51:54.947Z,28.68
2019-02-16T13:54:56.374Z,30.37
2019-02-16T13:57:42.745Z,27.60
2019-02-16T14:00:35.281Z,28.44
2019-02-16T14:03:24.604Z,30.55
2019-02-16T14:06:02.964Z,25.85
2019-02-16T14:08:49.403Z,28.58
2019-02-16T14:11:35.507Z,31.45
2019-02-16T14:14:20.425Z,29.91
2019-02-16T14:16:55.155Z,27.40
2019-02-16T14:19:22.160Z,31.32
2019-02-16T14:21:50.253Z,33.12
2019-02-16T14:24:37.923Z,34.05
2019-02-16T14:27:04.767Z,35.14
2019-02-16T14:29:40.932Z,28.01
2019-02-16T14:32:18.213Z,24.17
2019-02-16T14:34:45.270Z,25.89
2019-02-16T14:37:26.068Z,27.70
2019-02-16T14:39:53.334Z,26.36
2019-02-16T14:42:20.199Z,26.02
2019-02-16T14:44:49.283Z,27.37
2019-02-16T14:47:15.957Z,28.76
2019-02-16T14:49:42.700Z,25.73
2019-02-16T14:52:11.460Z,28.57
2019-02-16T14:54:38.581Z,30.31
2019-02-16T14:57:05.364Z,29.71
2019-02-16T14:59:32.240Z,25.26
2019-02-16T15:02:01.299Z,25.98
2019-02-16T15:04:28.340Z,25.90
2019-02-16T15:06:55.357Z,26.72
2019-02-16T15:09:26.784Z,25.71
2019-02-16T15:11:54.648Z,24.19
2019-02-16T15:14:21.972Z,23.46
2019-02-16T15:16:49.016Z,24.40
2019-02-16T15:19:15.770Z,22.77
2019-02-16T15:21:42.746Z,23.64
2019-02-16T15:24:09.730Z,24.03
2019-02-16T15:26:46.829Z,23.07
2019-02-16T15:29:45.109Z,23.69
2019-02-16T15:32:14.276Z,22.55
2019-02-16T15:34:41.161Z,22.25
2019-02-16T15:37:08.082Z,22.41
2019-02-16T15:39:35.048Z,22.84
2019-02-16T15:42:03.016Z,21.14
2019-02-16T15:44:29.975Z,19.68
2019-02-16T15:46:56.836Z,19.12
2019-02-16T15:49:23.987Z,19.45
2019-02-16T15:51:50.992Z,19.74
2019-02-16T15:54:18.722Z,19.20
2019-02-16T15:56:45.847Z,19.09
2019-02-16T15:59:14.970Z,20.55
2019-02-16T16:01:42.735Z,19.67
2019-02-16T16:04:09.444Z,20.07
2019-02-16T16:06:36.357Z,19.41
2019-02-16T16:09:18.106Z,18.64
2019-02-16T16:12:04.746Z,19.10
2019-02-16T16:14:44.150Z,19.50
2019-02-16T16:17:28.473Z,19.73
2019-02-16T16:20:01.107Z,19.34
2019-02-16T16:22:37.827Z,18.16
2019-02-16T16:25:27.144Z,16.71
2019-02-16T16:28:15.415Z,15.80
2019-02-16T16:31:11.582Z,14.68
2019-02-16T16:34:16.373Z,13.87
2019-02-16T16:36:50.375Z,13.26
2019-02-16T16:39:34.725Z,13.17
2019-02-16T16:42:25.250Z,13.19
2019-02-16T16:45:30.566Z,12.99
2019-02-16T16:48:16.424Z,12.97
2019-02-16T16:51:14.945Z,12.88
2019-02-16T16:53:56.906Z,12.55
2019-02-16T16:56:31.665Z,12.26
2019-02-16T16:59:28.460Z,11.92
2019-02-16T17:02:10.486Z,11.69
2019-02-16T17:04:57.046Z,11.62
2019-02-16T17:07:44.700Z,11.64
2019-02-16T17:10:21.103Z,11.66
2019-02-16T17:13:03.145Z,11.52
2019-02-16T17:15:52.892Z,11.39
2019-02-16T17:18:39.424Z,11.31
2019-02-16T17:21:28.207Z,10.99
2019-02-16T17:24:13.177Z,10.85
2019-02-16T17:26:58.261Z,10.66
2019-02-16T17:29:52.878Z,10.44
2019-02-16T17:32:54.389Z,9.72
2019-02-16T17:35:58.586Z,9.11
2019-02-16T17:38:45.054Z,8.98
2019-02-16T17:41:22.727Z,9.04
2019-02-16T17:43:58.357Z,8.93
2019-02-16T17:46:40.949Z,9.10
2019-02-16T17:49:42.736Z,9.38
2019-02-16T17:52:51.469Z,9.14
2019-02-16T17:55:28.081Z,8.78
2019-02-16T17:58:05.171Z,8.52
2019-02-16T18:00:51.876Z,8.56
2019-02-16T18:03:41.344Z,8.57
2019-02-16T18:06:23.881Z,8.66
2019-02-16T18:09:09.024Z,8.76
2019-02-16T18:11:44.342Z,8.75
2019-02-16T18:14:24.540Z,8.57
2019-02-16T18:17:05.746Z,8.31
2019-02-16T18:19:56.261Z,8.10
2019-02-16T18:22:31.902Z,7.87
2019-02-16T18:25:08.851Z,7.81
2019-02-16T18:27:58.382Z,7.70
2019-02-16T18:30:49.338Z,7.71
2019-02-16T18:33:40.376Z,7.80
2019-02-16T18:36:16.580Z,7.74
2019-02-16T18:38:59.626Z,7.59
2019-02-16T18:41:42.739Z,7.66
2019-02-16T18:44:18.681Z,7.72
2019-02-16T18:47:05.147Z,7.72
2019-02-16T18:49:57.141Z,7.84
2019-02-16T18:52:49.700Z,8.06
2019-02-16T18:55:39.311Z,8.06
2019-02-16T18:58:24.410Z,7.75
2019-02-16T19:01:06.300Z,7.55
2019-02-16T19:03:55.616Z,7.49
2019-02-16T19:06:49.775Z,6.28
2019-02-16T19:09:41.217Z,6.53
2019-02-16T19:12:19.375Z,6.88
2019-02-16T19:15:08.647Z,6.70
2019-02-16T19:18:10.194Z,6.89
2019-02-16T19:21:11.620Z,6.66
2019-02-16T19:23:58.042Z,6.35
2019-02-16T19:26:47.461Z,6.24
2019-02-16T19:29:36.213Z,6.29
2019-02-16T19:32:25.376Z,6.14
2019-02-16T19:35:14.500Z,6.19
2019-02-16T19:38:01.082Z,6.32
2019-02-16T19:40:46.476Z,6.10
2019-02-16T19:43:32.964Z,6.29
2019-02-16T19:46:25.294Z,6.34
2019-02-16T19:49:05.137Z,6.29
2019-02-16T19:51:50.694Z,6.25
2019-02-16T19:54:37.384Z,6.01
2019-02-16T19:57:42.094Z,5.76
2019-02-16T20:00:28.978Z,5.62
2019-02-16T20:03:34.872Z,5.81
2019-02-16T20:06:19.784Z,6.04
2019-02-16T20:08:54.141Z,6.12
2019-02-16T20:11:49.877Z,6.01
2019-02-16T20:14:40.000Z,6.01
2019-02-16T20:17:39.886Z,5.63
2019-02-16T20:20:25.622Z,5.30
2019-02-16T20:23:17.731Z,5.08
2019-02-16T20:26:04.071Z,5.03
2019-02-16T20:28:50.702Z,5.08
2019-02-16T20:31:46.435Z,5.26
2019-02-16T20:34:20.261Z,5.30
2019-02-16T20:37:02.830Z,5.16
2019-02-16T20:39:52.250Z,5.08
2019-02-16T20:42:40.914Z,5.05
2019-02-16T20:45:26.612Z,4.79
2019-02-16T20:48:13.288Z,4.78
2019-02-16T20:50:48.710Z,4.71
2019-02-16T20:53:23.946Z,4.75
2019-02-16T20:56:10.660Z,4.87
2019-02-16T20:59:00.847Z,4.88
2019-02-16T21:01:47.222Z,4.99
2019-02-16T21:04:34.306Z,4.95
2019-02-16T21:07:33.205Z,4.97
2019-02-16T21:10:20.004Z,4.87
2019-02-16T21:13:12.732Z,4.81
2019-02-16T21:15:56.451Z,4.93
2019-02-16T21:18:52.079Z,4.76
2019-02-16T21:21:37.428Z,4.49
2019-02-16T21:24:11.722Z,4.49
2019-02-16T21:26:58.629Z,4.53
2019-02-16T21:29:43.933Z,4.47
2019-02-16T21:32:33.020Z,4.43
2019-02-16T21:35:08.072Z,4.61
2019-02-16T21:37:43.749Z,4.76
2019-02-16T21:40:36.325Z,4.63
2019-02-16T21:43:28.105Z,4.83
2019-02-16T21:46:09.139Z,4.76
2019-02-16T21:48:56.680Z,4.57
2019-02-16T21:51:58.155Z,4.46
2019-02-16T21:54:44.742Z,4.32
2019-02-16T21:57:29.923Z,4.28
2019-02-16T22:00:14.874Z,4.21
2019-02-16T22:02:50.853Z,4.07
2019-02-16T22:05:36.348Z,3.94
2019-02-16T22:08:14.684Z,3.94
2019-02-16T22:10:59.802Z,3.99
2019-02-16T22:13:26.727Z,3.84
2019-02-16T22:15:53.513Z,3.57
2019-02-16T22:18:20.392Z,3.54
2019-02-16T22:20:47.411Z,3.46
2019-02-16T22:23:14.346Z,3.41
2019-02-16T22:25:41.103Z,3.52
2019-02-16T22:28:17.952Z,3.49
2019-02-16T22:30:36.692Z,3.50
2019-02-16T22:33:03.490Z,3.53
2019-02-16T22:35:30.500Z,3.55
2019-02-16T22:37:57.249Z,3.57
2019-02-16T22:40:24.034Z,3.59
2019-02-16T22:42:51.087Z,3.50
2019-02-16T22:45:19.168Z,3.50
2019-02-16T22:47:46.036Z,3.57
2019-02-16T22:50:13.051Z,3.52
2019-02-16T22:52:40.072Z,3.30
2019-02-16T22:55:07.429Z,3.44
2019-02-16T22:57:34.390Z,3.53
2019-02-16T23:00:01.151Z,3.56
2019-02-16T23:02:28.462Z,3.68
2019-02-16T23:04:55.450Z,3.73
2019-02-16T23:07:22.316Z,3.71
2019-02-16T23:09:50.663Z,3.53
2019-02-16T23:12:17.755Z,3.41
2019-02-16T23:14:44.842Z,3.70
2019-02-16T23:17:11.797Z,3.79
2019-02-16T23:19:38.580Z,3.82
2019-02-16T23:22:05.929Z,3.45
2019-02-16T23:24:32.788Z,2.82
2019-02-16T23:26:59.934Z,2.02
2019-02-16T23:29:26.910Z,1.70
2019-02-16T23:31:53.645Z,1.38
2019-02-16T23:34:20.539Z,1.15
2019-02-16T23:36:47.529Z,1.12
2019-02-16T23:39:14.387Z,1.13
2019-02-16T23:41:41.475Z,1.19
2019-02-16T23:44:08.327Z,1.47
2019-02-16T23:46:35.238Z,2.00
2019-02-16T23:49:02.231Z,2.44
2019-02-16T23:51:29.195Z,2.62
2019-02-16T23:53:55.931Z,2.77
2019-02-16T23:56:22.753Z,2.73
2019-02-16T23:58:52.063Z,2.85
